createdAt,value
2024-04-17T00:01:08.424Z,74825.84
2024-04-17T00:07:02.552Z,74837.84
2024-04-17T00:10:04.811Z,74837.84
2024-04-17T00:13:06.682Z,74859.81
2024-04-17T00:16:08.975Z,74861.81
2024-04-17T00:22:02.448Z,74865.81
2024-04-17T00:25:04.969Z,74859.81
2024-04-17T00:28:06.885Z,74875.81
2024-04-17T00:31:08.810Z,74869.81
2024-04-17T00:37:02.746Z,74885.78
2024-04-17T00:40:05.284Z,74889.78
2024-04-17T00:43:07.175Z,74889.78
2024-04-17T00:46:12.866Z,74891.78
2024-04-17T00:52:03.103Z,74899.78
2024-04-17T00:55:05.968Z,74889.78
2024-04-17T00:58:08.863Z,74915.78
2024-04-17T01:01:10.776Z,74913.78
2024-04-17T01:07:02.364Z,74929.75
2024-04-17T01:10:04.479Z,74923.75
2024-04-17T01:13:06.353Z,74903.78
2024-04-17T01:16:08.151Z,74901.78
2024-04-17T01:19:11.220Z,74903.78
2024-04-17T01:22:15.743Z,74885.78
2024-04-17T01:25:20.277Z,74881.81
2024-04-17T01:28:22.270Z,74859.81
2024-04-17T01:31:24.091Z,74869.81
2024-04-17T01:37:02.451Z,74849.81
2024-04-17T01:40:04.808Z,74843.84
2024-04-17T01:43:07.843Z,74835.84
2024-04-17T01:46:10.759Z,74849.81
2024-04-17T01:49:12.518Z,74829.84
2024-04-17T01:52:16.929Z,74839.84
2024-04-17T01:55:18.686Z,74845.81
2024-04-17T01:58:21.819Z,74829.84
2024-04-17T02:01:23.806Z,74853.81
2024-04-17T02:07:02.933Z,74877.81
2024-04-17T02:10:05.269Z,74887.78
2024-04-17T02:13:07.059Z,74915.78
2024-04-17T02:16:11.279Z,74921.75
2024-04-17T02:22:02.574Z,74931.75
2024-04-17T02:25:04.844Z,74925.75
2024-04-17T02:28:06.963Z,74931.75
2024-04-17T02:31:08.759Z,74929.75
2024-04-17T02:34:10.520Z,74953.75
2024-04-17T02:37:14.990Z,74953.75
2024-04-17T02:40:17.007Z,74949.75
2024-04-17T02:43:18.818Z,74957.75
2024-04-17T02:46:20.636Z,74957.75
2024-04-17T02:52:02.574Z,74961.72
2024-04-17T02:55:04.760Z,74961.72
2024-04-17T02:58:06.593Z,74979.72
2024-04-17T03:01:15.426Z,74971.72
2024-04-17T03:07:16.118Z,74991.72
2024-04-17T03:10:18.038Z,74985.72
2024-04-17T03:13:19.972Z,74971.72
2024-04-17T03:16:21.963Z,74985.72
2024-04-17T03:22:02.781Z,74985.72
2024-04-17T03:25:05.197Z,75009.69
2024-04-17T03:28:07.138Z,74989.72
2024-04-17T03:31:09.195Z,74991.72
2024-04-17T03:34:11.005Z,75003.69
2024-04-17T03:37:15.414Z,75009.69
2024-04-17T03:40:17.302Z,75007.69
2024-04-17T03:43:19.208Z,74989.72
2024-04-17T03:46:21.144Z,74997.72
2024-04-17T03:52:02.501Z,75001.69
2024-04-17T03:55:04.685Z,74995.72
2024-04-17T03:58:06.482Z,74981.72
2024-04-17T04:01:08.370Z,74975.72
2024-04-17T04:07:02.908Z,74981.72
2024-04-17T04:10:05.410Z,74997.72
2024-04-17T04:13:07.279Z,74991.72
2024-04-17T04:16:09.171Z,74993.72
2024-04-17T04:22:02.485Z,74981.72
2024-04-17T04:25:04.665Z,74979.72
2024-04-17T04:28:07.111Z,74981.72
2024-04-17T04:31:08.935Z,74993.72
2024-04-17T04:37:02.458Z,74989.72
2024-04-17T04:40:05.209Z,75007.69
2024-04-17T04:43:09.184Z,74989.72
2024-04-17T04:46:11.102Z,74985.72
2024-04-17T04:52:02.599Z,75019.69
2024-04-17T04:55:06.160Z,75003.69
2024-04-17T04:58:08.098Z,75021.69
2024-04-17T05:01:10.020Z,75023.69
2024-04-17T05:04:11.922Z,75017.69
2024-04-17T05:07:16.379Z,75013.69
2024-04-17T05:10:18.234Z,75025.69
2024-04-17T05:13:20.231Z,75009.69
2024-04-17T05:16:22.187Z,75005.69
2024-04-17T05:19:24.062Z,74997.72
2024-04-17T05:22:28.532Z,74999.72
2024-04-17T05:25:30.517Z,74985.72
2024-04-17T05:28:32.588Z,74991.72
2024-04-17T05:31:34.494Z,74989.72
2024-04-17T05:37:02.467Z,74995.72
2024-04-17T05:40:04.988Z,74997.72
2024-04-17T05:43:08.715Z,74985.72
2024-04-17T05:46:10.535Z,74989.72
2024-04-17T05:49:12.389Z,74975.72
2024-04-17T05:52:18.109Z,74981.72
2024-04-17T05:55:19.921Z,74987.72
2024-04-17T05:58:21.658Z,75009.69
2024-04-17T06:01:23.572Z,75017.69
2024-04-17T06:04:25.698Z,75013.69
2024-04-17T06:07:30.290Z,75015.69
2024-04-17T06:10:32.117Z,75019.69
2024-04-17T06:13:33.994Z,75013.69
2024-04-17T06:16:35.916Z,75011.69
2024-04-17T06:22:02.762Z,74993.72
2024-04-17T06:25:05.381Z,74993.72
2024-04-17T06:28:07.736Z,74993.72
2024-04-17T06:31:09.500Z,75003.69
2024-04-17T06:34:11.281Z,75011.69
2024-04-17T06:37:16.161Z,75011.69
2024-04-17T06:40:18.013Z,75033.69
2024-04-17T06:43:19.823Z,75039.69
2024-04-17T06:46:21.824Z,75031.69
2024-04-17T07:22:02.644Z,74951.75
2024-04-17T07:25:05.027Z,74933.75
2024-04-17T07:28:07.299Z,74929.75
2024-04-17T07:31:09.753Z,74925.75
2024-04-17T07:37:05.700Z,75005.69
2024-04-17T07:40:09.154Z,75005.69
2024-04-17T07:43:11.010Z,75009.69
2024-04-17T07:46:12.948Z,75007.69
2024-04-17T07:52:02.547Z,74991.72
2024-04-17T07:55:05.298Z,74947.75
2024-04-17T07:58:07.247Z,74923.75
2024-04-17T08:01:09.242Z,74927.75
2024-04-17T08:07:03.098Z,74851.81
2024-04-17T08:10:05.404Z,74843.84
2024-04-17T08:13:13.816Z,74871.81
2024-04-17T08:16:15.876Z,74903.78
2024-04-17T08:22:03.083Z,74911.78
2024-04-17T08:25:05.243Z,74853.81
2024-04-17T08:28:07.110Z,74827.84
2024-04-17T08:31:08.904Z,74817.84
2024-04-17T08:37:02.578Z,74751.91
2024-04-17T08:40:05.099Z,74771.88
2024-04-17T08:43:07.013Z,74741.91
2024-04-17T08:46:11.924Z,74721.94
2024-04-17T08:52:04.285Z,74741.91
2024-04-17T08:55:07.621Z,74693.97
2024-04-17T08:58:09.812Z,74677.97
2024-04-17T09:01:12.616Z,74673.97
2024-04-17T09:07:03.276Z,74747.91
2024-04-17T09:10:06.055Z,74753.91
2024-04-17T09:13:09.008Z,74749.91
2024-04-17T09:16:10.918Z,74721.94
2024-04-17T09:22:02.592Z,74721.94
2024-04-17T09:25:12.975Z,74699.94
2024-04-17T09:28:14.832Z,74683.97
2024-04-17T09:31:17.659Z,74701.94
2024-04-17T09:37:02.599Z,74743.91
2024-04-17T09:40:05.129Z,74741.91
2024-04-17T09:43:15.992Z,74697.94
2024-04-17T09:46:26.450Z,74671.97
2024-04-17T09:52:05.576Z,74709.94
2024-04-17T09:55:10.108Z,74652.00
2024-04-17T09:58:14.308Z,74624.03
2024-04-17T10:01:18.354Z,74652.00
2024-04-17T10:07:05.356Z,74620.03
2024-04-17T10:10:08.168Z,74604.03
2024-04-17T10:13:11.894Z,74620.03
2024-04-17T10:16:15.019Z,74646.00
2024-04-17T10:22:06.005Z,74616.03
2024-04-17T10:25:15.261Z,74650.00
2024-04-17T10:28:22.754Z,74610.03
2024-04-17T10:31:34.130Z,74532.09
2024-04-17T10:37:04.079Z,74598.03
2024-04-17T10:40:10.348Z,74638.00
2024-04-17T10:43:13.129Z,74590.03
2024-04-17T10:46:21.922Z,74552.09
2024-04-17T10:52:04.961Z,74446.19
2024-04-17T10:55:08.783Z,74530.09
2024-04-17T10:58:13.706Z,74544.09
2024-04-17T11:01:17.509Z,74550.09
2024-04-17T11:07:02.933Z,74564.06
2024-04-17T11:10:11.301Z,74586.06
2024-04-17T11:13:16.796Z,74586.06
2024-04-17T11:16:18.795Z,74602.03
2024-04-17T11:22:07.671Z,74526.09
2024-04-17T11:25:14.161Z,74514.13
2024-04-17T11:28:16.184Z,74578.06
2024-04-17T11:31:18.203Z,74554.09
2024-04-17T11:37:06.644Z,74570.06
2024-04-17T11:40:09.169Z,74534.09
2024-04-17T11:43:15.982Z,74522.09
2024-04-17T11:46:19.635Z,74478.16
2024-04-17T11:52:02.802Z,74438.19
2024-04-17T11:55:05.517Z,74464.16
2024-04-17T11:58:07.989Z,74494.13
2024-04-17T12:01:09.849Z,74506.13
2024-04-17T12:07:03.127Z,74476.16
2024-04-17T12:10:05.706Z,74448.19
2024-04-17T12:13:08.383Z,74374.25
2024-04-17T12:16:10.454Z,74394.22
2024-04-17T12:22:03.542Z,74328.28
2024-04-17T12:25:24.474Z,74422.19
2024-04-17T12:28:26.453Z,74468.16
2024-04-17T12:31:29.017Z,74480.16
2024-04-17T12:37:02.770Z,74474.16
2024-04-17T12:40:05.427Z,74450.19
2024-04-17T12:43:07.712Z,74462.16
2024-04-17T12:46:09.556Z,74348.28
2024-04-17T12:52:02.370Z,74364.25
2024-04-17T12:55:04.825Z,74284.34
2024-04-17T12:58:06.614Z,74302.31
2024-04-17T13:01:08.544Z,74322.31
2024-04-17T13:07:04.679Z,74160.47
2024-04-17T13:10:09.706Z,74192.44
2024-04-17T13:13:11.596Z,74274.34
2024-04-17T13:16:14.816Z,74250.38
2024-04-17T13:22:02.644Z,74270.34
2024-04-17T13:25:05.800Z,74312.31
2024-04-17T13:28:07.647Z,74290.31
2024-04-17T13:31:09.586Z,74316.31
2024-04-17T13:37:05.321Z,74306.31
2024-04-17T13:40:08.315Z,74328.28
2024-04-17T13:43:10.336Z,74278.34
2024-04-17T13:46:15.314Z,74134.50
2024-04-17T13:52:02.694Z,74180.44
2024-04-17T13:55:05.115Z,74220.41
2024-04-17T13:58:06.967Z,74262.34
2024-04-17T14:01:11.906Z,74252.38
2024-04-17T14:07:03.563Z,74298.31
2024-04-17T14:10:05.934Z,74326.28
2024-04-17T14:13:07.777Z,74318.31
2024-04-17T14:16:09.629Z,74338.28
2024-04-17T14:22:02.618Z,74380.25
2024-04-17T14:25:05.008Z,74360.25
2024-04-17T14:28:07.714Z,74258.38
2024-04-17T14:31:09.691Z,74270.34
2024-04-17T14:37:02.939Z,74188.44
2024-04-17T14:40:05.929Z,74146.47
2024-04-17T14:43:08.403Z,74138.47
2024-04-17T14:46:10.736Z,74140.47
2024-04-17T14:52:03.131Z,74236.38
2024-04-17T14:55:05.721Z,74234.38
2024-04-17T14:58:07.548Z,74286.34
2024-04-17T15:01:14.014Z,74388.25
2024-04-17T15:07:03.019Z,74438.19
2024-04-17T15:10:05.652Z,74458.16
2024-04-17T15:13:07.568Z,74474.16
2024-04-17T15:16:10.685Z,74482.16
2024-04-17T15:22:03.124Z,74510.13
2024-04-17T15:25:07.076Z,74460.16
2024-04-17T15:28:08.960Z,74466.16
2024-04-17T15:31:17.106Z,74506.13
2024-04-17T15:37:03.052Z,74580.06
2024-04-17T15:40:05.620Z,74558.06
2024-04-17T15:43:07.522Z,74508.13
2024-04-17T15:46:11.029Z,74524.09
2024-04-17T15:52:02.949Z,74614.03
2024-04-17T15:55:05.383Z,74626.00
2024-04-17T15:58:07.301Z,74604.03
2024-04-17T16:01:10.145Z,74618.03
2024-04-17T16:07:12.274Z,74578.06
2024-04-17T16:10:14.419Z,74628.00
2024-04-17T16:13:16.350Z,74638.00
2024-04-17T16:16:18.615Z,74669.97
2024-04-17T16:22:03.613Z,74638.00
2024-04-17T16:25:06.904Z,74602.03
2024-04-17T16:28:08.940Z,74650.00
2024-04-17T16:31:12.076Z,74644.00
2024-04-17T16:37:07.243Z,74638.00
2024-04-17T16:40:09.330Z,74632.00
2024-04-17T16:43:11.329Z,74628.00
2024-04-17T16:46:15.282Z,74646.00
2024-04-17T16:52:02.635Z,74693.97
2024-04-17T16:55:05.071Z,74691.97
2024-04-17T16:58:06.989Z,74689.97
2024-04-17T17:01:09.840Z,74658.00
2024-04-17T17:07:02.863Z,74677.97
2024-04-17T17:10:05.424Z,74691.97
2024-04-17T17:13:07.261Z,74717.94
2024-04-17T17:16:09.333Z,74729.94
2024-04-17T17:22:02.895Z,74721.94
2024-04-17T17:25:05.383Z,74689.97
2024-04-17T17:28:07.251Z,74705.94
2024-04-17T17:31:09.324Z,74727.94
2024-04-17T17:37:06.066Z,74727.94
2024-04-17T17:40:08.542Z,74743.91
2024-04-17T17:43:10.920Z,74753.91
2024-04-17T17:46:14.285Z,74741.91
2024-04-17T17:52:05.808Z,74797.88
2024-04-17T17:55:08.437Z,74789.88
2024-04-17T17:58:10.370Z,74793.88
2024-04-17T18:01:15.247Z,74789.88
2024-04-17T18:07:03.033Z,74817.84
2024-04-17T18:10:05.691Z,74817.84
2024-04-17T18:13:07.496Z,74845.81
2024-04-17T18:16:15.992Z,74885.78
2024-04-17T18:22:02.575Z,74923.75
2024-04-17T18:25:05.040Z,74925.75
2024-04-17T18:28:06.907Z,74945.75
2024-04-17T18:31:08.945Z,74955.75
2024-04-17T18:37:02.974Z,74899.78
2024-04-17T18:40:07.273Z,74889.78
2024-04-17T18:43:09.084Z,74911.78
2024-04-17T18:46:12.520Z,74909.78
2024-04-17T18:52:02.287Z,74899.78
2024-04-17T18:55:04.773Z,74907.78
2024-04-17T18:58:06.619Z,74909.78
2024-04-17T19:01:09.901Z,74913.78
2024-04-17T19:07:03.889Z,74913.78
2024-04-17T19:10:06.497Z,74913.78
2024-04-17T19:13:08.316Z,74913.78
2024-04-17T19:16:13.172Z,74913.78
2024-04-17T19:22:02.504Z,74929.75
2024-04-17T19:25:04.887Z,74935.75
2024-04-17T19:28:06.867Z,74947.75
2024-04-17T19:31:08.981Z,74929.75
2024-04-17T19:37:02.953Z,74961.72
2024-04-17T19:40:05.518Z,74969.72
2024-04-17T19:43:07.463Z,74971.72
2024-04-17T19:46:10.391Z,74971.72
2024-04-17T19:52:02.630Z,74979.72
2024-04-17T19:55:04.873Z,74987.72
2024-04-17T19:58:06.721Z,74995.72
2024-04-17T20:01:13.871Z,75001.69
2024-04-17T20:07:02.980Z,75013.69
2024-04-17T20:10:05.323Z,75035.69
2024-04-17T20:13:07.313Z,75049.66
2024-04-17T20:16:10.152Z,75057.66
2024-04-17T20:22:02.606Z,75077.66
2024-04-17T20:25:04.901Z,75079.66
2024-04-17T20:28:06.772Z,75083.63
2024-04-17T20:31:09.689Z,75085.63
2024-04-17T20:37:03.053Z,75093.63
2024-04-17T20:40:14.121Z,75105.63
2024-04-17T20:43:21.934Z,75127.59
2024-04-17T20:46:23.779Z,75113.63
2024-04-17T20:52:02.626Z,75125.59
2024-04-17T20:55:05.188Z,75119.63
2024-04-17T20:58:07.099Z,75119.63
2024-04-17T21:01:10.356Z,75149.59
2024-04-17T21:07:02.713Z,75149.59
2024-04-17T21:10:05.510Z,75163.59
2024-04-17T21:13:07.390Z,75175.56
2024-04-17T21:16:16.683Z,75199.56
2024-04-17T21:22:02.617Z,75197.56
2024-04-17T21:25:05.055Z,75183.56
2024-04-17T21:28:06.935Z,75185.56
2024-04-17T21:31:10.369Z,75183.56
2024-04-17T21:37:03.438Z,75181.56
2024-04-17T21:40:07.189Z,75193.56
2024-04-17T21:43:09.461Z,75201.56
2024-04-17T21:46:12.811Z,75197.56
2024-04-17T21:52:02.877Z,75215.53
2024-04-17T21:55:05.261Z,75223.53
2024-04-17T21:58:07.188Z,75223.53
2024-04-17T22:01:09.674Z,75245.53
2024-04-17T22:07:02.555Z,75251.50
2024-04-17T22:10:04.935Z,75243.53
2024-04-17T22:13:06.824Z,75249.53
2024-04-17T22:16:09.074Z,75255.50
2024-04-17T22:22:02.575Z,75261.50
2024-04-17T22:25:05.619Z,75273.50
2024-04-17T22:28:07.768Z,75277.50
2024-04-17T22:31:09.586Z,75293.50
2024-04-17T22:37:05.140Z,75289.50
2024-04-17T22:40:08.200Z,75299.47
2024-04-17T22:43:10.330Z,75303.47
2024-04-17T22:46:12.137Z,75301.47
2024-04-17T22:52:02.543Z,75287.50
2024-04-17T22:55:04.837Z,75289.50
2024-04-17T22:58:06.687Z,75301.47
2024-04-17T23:01:08.688Z,75285.50
2024-04-17T23:07:02.456Z,75295.47
2024-04-17T23:10:04.843Z,75295.47
2024-04-17T23:13:08.473Z,75299.47
2024-04-17T23:16:10.413Z,75301.47
2024-04-17T23:22:04.704Z,75321.47
2024-04-17T23:25:06.880Z,75333.47
2024-04-17T23:28:08.857Z,75329.47
2024-04-17T23:31:10.860Z,75319.47
2024-04-17T23:37:06.269Z,75323.47
2024-04-17T23:40:09.184Z,75311.47
2024-04-17T23:43:11.207Z,75309.47
2024-04-17T23:46:13.131Z,75305.47
2024-04-17T23:52:12.034Z,75293.50
2024-04-17T23:55:14.331Z,75301.47
2024-04-17T23:58:16.319Z,75295.47
